Time;durP1;ratioP1;P1;durP2;ratioP2;P2;SDS_P1;SDS_P2;PMS_P1;PMS_P2;Temp;Humidity;BMP_temperature;BMP_pressure;BME280_temperature;BME280_humidity;BME280_pressure;Samples;Min_cycle;Max_cycle;Signal;HPM_P1;HPM_P2
2021/06/11 00:01:42;;;;;;;4.65;4.22;;;;;;;18.93;71.02;98734.22;5006728;28;20033;-77
2021/06/11 00:04:07;;;;;;;5.40;4.90;;;;;;;18.90;71.21;98732.16;4979681;28;20022;-77
2021/06/11 00:06:33;;;;;;;4.95;4.30;;;;;;;18.90;70.88;98730.22;4993953;28;20062;-78
2021/06/11 00:08:59;;;;;;;5.13;4.68;;;;;;;18.88;71.13;98735.19;4976447;28;20022;-77
2021/06/11 00:11:25;;;;;;;6.35;4.95;;;;;;;18.87;71.44;98729.00;4975913;28;20045;-77
2021/06/11 00:13:51;;;;;;;9.27;4.82;;;;;;;18.86;71.51;98732.06;4986607;28;20022;-78
2021/06/11 00:16:16;;;;;;;7.18;4.20;;;;;;;18.84;71.65;98726.94;4995777;28;20033;-77
2021/06/11 00:18:41;;;;;;;5.20;4.70;;;;;;;18.82;71.76;98723.00;4993764;28;20030;-76
2021/06/11 00:21:07;;;;;;;5.53;4.93;;;;;;;18.81;71.87;98729.53;5012484;28;20107;-77
2021/06/11 00:23:32;;;;;;;5.55;5.05;;;;;;;18.81;71.99;98722.22;4985564;28;20485;-77
2021/06/11 00:25:58;;;;;;;6.88;5.85;;;;;;;18.81;72.33;98724.13;4989783;28;20030;-77
2021/06/11 00:28:23;;;;;;;5.65;5.07;;;;;;;18.81;72.81;98727.66;4995143;28;20068;-77
2021/06/11 00:30:49;;;;;;;6.97;5.10;;;;;;;18.79;72.60;98719.06;4993881;28;20022;-76
2021/06/11 00:33:14;;;;;;;5.45;4.95;;;;;;;18.81;72.27;98721.41;4987227;28;20034;-77
2021/06/11 00:35:40;;;;;;;7.85;4.80;;;;;;;18.80;72.40;98717.16;4995228;28;20075;-83
2021/06/11 00:38:08;;;;;;;5.28;4.78;;;;;;;18.81;72.49;98732.25;4995315;28;20453;-78
2021/06/11 00:40:33;;;;;;;5.53;5.03;;;;;;;18.80;72.31;98734.19;4994088;28;20037;-79
2021/06/11 00:42:59;;;;;;;5.95;5.20;;;;;;;18.77;72.18;98728.66;4994820;28;20038;-76
2021/06/11 00:45:25;;;;;;;4.57;4.18;;;;;;;18.77;72.31;98729.44;5011036;28;20065;-77
2021/06/11 00:47:50;;;;;;;4.93;4.28;;;;;;;18.78;72.06;98732.94;5012631;28;20040;-76
2021/06/11 00:50:24;;;;;;;4.95;3.97;;;;;;;18.77;71.82;98737.56;5012344;28;20091;-77
2021/06/11 00:52:54;;;;;;;4.45;3.75;;;;;;;18.73;71.72;98733.94;4994661;28;20039;-77
2021/06/11 00:55:20;;;;;;;4.35;3.95;;;;;;;18.71;71.59;98731.59;5009467;28;20093;-80
2021/06/11 00:57:46;;;;;;;6.20;4.40;;;;;;;18.71;71.86;98730.78;4975193;28;20587;-77
2021/06/11 01:00:12;;;;;;;5.53;4.68;;;;;;;18.67;71.93;98727.19;4975471;28;20429;-79
2021/06/11 01:02:37;;;;;;;5.18;4.63;;;;;;;18.65;72.18;98732.94;5011357;28;20084;-78
2021/06/11 01:05:03;;;;;;;4.55;4.15;;;;;;;18.58;71.96;98730.00;5012288;28;20026;-78
2021/06/11 01:07:30;;;;;;;4.88;4.03;;;;;;;18.58;72.04;98729.19;4994398;28;20022;-79
2021/06/11 01:09:56;;;;;;;5.53;5.03;;;;;;;18.56;71.76;98724.91;4993631;28;20036;-78
2021/06/11 01:12:21;;;;;;;9.00;4.18;;;;;;;18.53;71.96;98730.22;5011666;28;20044;-77
2021/06/11 01:14:47;;;;;;;4.70;4.28;;;;;;;18.50;71.97;98728.19;4994418;28;20021;-77
2021/06/11 01:17:13;;;;;;;6.03;3.47;;;;;;;18.46;71.85;98722.66;4993841;28;20034;-78
2021/06/11 01:19:43;;;;;;;5.40;4.95;;;;;;;18.40;71.91;98721.28;4994188;28;20480;-78
2021/06/11 01:22:18;;;;;;;7.75;4.57;;;;;;;18.35;72.17;98724.22;5011679;28;20100;-77
2021/06/11 01:25:04;;;;;;;4.53;4.13;;;;;;;18.32;72.26;98714.84;4994067;28;20068;-78
2021/06/11 01:27:30;;;;;;;5.25;4.75;;;;;;;18.31;72.71;98715.16;4990042;28;20065;-77
2021/06/11 01:30:04;;;;;;;7.55;4.70;;;;;;;18.32;72.01;98719.47;4992641;28;20038;-78
2021/06/11 01:32:33;;;;;;;5.97;4.15;;;;;;;18.32;72.30;98717.56;5009281;28;20316;-77
2021/06/11 01:35:13;;;;;;;5.32;4.15;;;;;;;18.31;72.39;98718.69;4993960;28;20069;-77
2021/06/11 01:37:39;;;;;;;4.28;3.63;;;;;;;18.31;72.43;98718.69;4979662;28;20058;-77
2021/06/11 01:40:07;;;;;;;5.05;4.18;;;;;;;18.35;72.40;98729.63;4992500;28;20066;-78
2021/06/11 01:42:38;;;;;;;4.70;4.30;;;;;;;18.32;72.41;98725.69;4974511;28;20034;-78
2021/06/11 01:45:08;;;;;;;4.93;4.43;;;;;;;18.34;72.13;98722.63;4993919;28;20505;-79
2021/06/11 01:47:38;;;;;;;4.68;4.28;;;;;;;18.35;72.13;98729.63;4977617;28;20406;-78
2021/06/11 01:50:06;;;;;;;3.80;3.50;;;;;;;18.32;72.30;98727.56;4992099;28;20027;-78
2021/06/11 01:52:32;;;;;;;5.75;3.67;;;;;;;18.27;72.07;98722.38;4988050;28;20081;-78
2021/06/11 01:54:58;;;;;;;6.13;4.82;;;;;;;18.26;71.99;98715.38;4975693;28;20453;-78
2021/06/11 01:57:24;;;;;;;4.65;4.15;;;;;;;18.26;72.13;98718.91;4982716;28;20037;-77
2021/06/11 01:59:52;;;;;;;4.68;4.13;;;;;;;18.25;72.11;98725.44;4993616;28;20025;-76
2021/06/11 02:02:19;;;;;;;4.47;3.60;;;;;;;18.24;72.13;98718.44;5011620;28;20029;-77
2021/06/11 02:04:44;;;;;;;4.07;3.67;;;;;;;18.26;72.14;98724.31;4999768;28;20538;-77
2021/06/11 02:07:11;;;;;;;6.00;4.93;;;;;;;18.21;72.40;98710.97;4974331;28;20022;-77
2021/06/11 02:09:38;;;;;;;7.93;4.35;;;;;;;18.22;72.40;98715.25;4983613;28;20044;-77
2021/06/11 02:12:05;;;;;;;6.03;4.00;;;;;;;18.19;72.55;98716.72;5011281;28;20456;-76
2021/06/11 02:14:31;;;;;;;4.40;3.40;;;;;;;18.19;72.81;98714.03;4993478;28;20374;-77
2021/06/11 02:16:58;;;;;;;6.32;3.95;;;;;;;18.22;72.48;98718.78;5011457;28;20041;-77
2021/06/11 02:19:26;;;;;;;7.43;3.90;;;;;;;18.22;72.86;98707.16;5011228;28;20087;-76
2021/06/11 02:21:52;;;;;;;5.72;3.90;;;;;;;18.17;72.57;98704.66;5010176;28;20030;-76
2021/06/11 02:24:19;;;;;;;6.60;3.75;;;;;;;18.18;72.75;98701.59;5014600;28;20050;-76
2021/06/11 02:26:46;;;;;;;7.38;3.63;;;;;;;18.15;72.90;98702.28;5015029;28;20389;-76
2021/06/11 02:29:11;;;;;;;11.15;4.05;;;;;;;18.17;72.40;98710.06;5014213;28;20029;-76
2021/06/11 02:31:38;;;;;;;6.35;4.32;;;;;;;18.19;72.24;98705.13;5011708;28;20601;-78
2021/06/11 02:34:03;;;;;;;13.32;4.47;;;;;;;18.18;72.46;98708.94;4995936;28;20033;-78
2021/06/11 02:36:31;;;;;;;4.20;3.80;;;;;;;18.19;72.34;98708.59;4995607;28;20026;-77
2021/06/11 02:38:56;;;;;;;4.00;3.70;;;;;;;18.16;72.33;98700.38;4995648;28;20034;-77
2021/06/11 02:41:25;;;;;;;3.92;3.63;;;;;;;18.16;72.47;98703.88;4995570;28;20285;-77
2021/06/11 02:43:53;;;;;;;4.40;4.00;;;;;;;18.16;72.30;98706.59;4995339;28;20367;-77
2021/06/11 02:46:29;;;;;;;6.22;3.85;;;;;;;18.17;72.61;98708.16;4996298;28;20035;-76
2021/06/11 02:49:04;;;;;;;9.15;4.05;;;;;;;18.18;72.45;98712.44;4994756;28;20062;-76
2021/06/11 02:51:32;;;;;;;6.70;4.32;;;;;;;18.15;72.26;98705.00;4995492;28;20093;-77
2021/06/11 02:54:00;;;;;;;5.53;4.03;;;;;;;18.18;72.50;98707.03;4977923;28;20026;-77
2021/06/11 02:56:43;;;;;;;;;;;;;;;18.26;72.53;98707.25;4994583;28;20034;-78
2021/06/11 02:59:15;;;;;;;9.18;3.97;;;;;;;18.30;72.76;98706.25;4978083;28;20289;-78
2021/06/11 03:01:45;;;;;;;4.20;3.80;;;;;;;18.35;72.45;98711.47;4977874;28;20030;-79
2021/06/11 03:04:11;;;;;;;4.07;3.22;;;;;;;18.36;72.25;98712.25;4980112;28;20034;-76
2021/06/11 03:06:38;;;;;;;5.03;3.70;;;;;;;18.37;72.13;98713.81;5014158;28;20064;-76
2021/06/11 03:09:09;;;;;;;5.07;3.42;;;;;;;18.38;71.88;98712.69;5014654;28;20029;-77
2021/06/11 03:11:41;;;;;;;4.50;3.78;;;;;;;18.37;71.81;98711.91;4996642;28;20030;-77
2021/06/11 03:14:08;;;;;;;7.03;3.80;;;;;;;18.38;71.80;98720.81;4996461;28;20034;-78
2021/06/11 03:16:34;;;;;;;13.05;4.70;;;;;;;18.37;71.90;98722.75;4984745;28;20062;-77
2021/06/11 03:19:06;;;;;;;4.53;4.10;;;;;;;18.38;72.25;98720.81;4994869;28;20056;-78
2021/06/11 03:21:35;;;;;;;7.45;3.92;;;;;;;18.37;72.29;98720.03;4977305;28;20026;-77
2021/06/11 03:24:11;;;;;;;5.50;4.40;;;;;;;18.38;72.20;98727.03;4977027;28;20050;-78
2021/06/11 03:26:51;;;;;;;6.00;4.90;;;;;;;18.40;72.41;98724.78;4976731;28;20084;-78
2021/06/11 03:29:22;;;;;;;6.90;4.13;;;;;;;18.40;72.50;98722.06;4978053;28;20048;-78
2021/06/11 03:31:52;;;;;;;4.55;4.07;;;;;;;18.43;72.34;98725.22;4988031;28;20038;-78
2021/06/11 03:34:23;;;;;;;3.97;3.60;;;;;;;18.43;72.25;98722.53;4983231;28;20029;-78
2021/06/11 03:36:50;;;;;;;4.63;4.03;;;;;;;18.41;72.66;98731.00;4996147;28;20029;-77
2021/06/11 03:39:23;;;;;;;6.18;4.18;;;;;;;18.45;72.55;98728.41;4996546;28;20080;-79
2021/06/11 03:41:50;;;;;;;6.93;4.78;;;;;;;18.40;72.58;98732.88;5010972;28;20026;-78
2021/06/11 03:44:17;;;;;;;7.70;4.88;;;;;;;18.38;72.40;98735.16;4995742;28;20125;-78
2021/06/11 03:46:45;;;;;;;8.32;4.97;;;;;;;18.36;72.56;98732.00;4988482;28;20085;-79
2021/06/11 03:49:12;;;;;;;5.07;3.83;;;;;;;18.35;72.54;98733.13;4998353;28;20026;-78
2021/06/11 03:51:41;;;;;;;6.20;3.78;;;;;;;18.37;72.22;98739.00;4995964;28;20026;-78
2021/06/11 03:54:10;;;;;;;4.97;3.92;;;;;;;18.32;72.51;98736.50;4996196;28;20025;-79
2021/06/11 03:56:37;;;;;;;9.35;3.70;;;;;;;18.33;72.45;98738.06;4995365;28;20026;-78
2021/06/11 03:59:04;;;;;;;4.90;4.18;;;;;;;18.32;72.13;98736.50;4985360;28;20037;-78
2021/06/11 04:01:35;;;;;;;7.78;3.80;;;;;;;18.31;71.94;98740.34;4976054;28;20030;-78
2021/06/11 04:04:01;;;;;;;6.28;5.10;;;;;;;18.33;72.21;98740.78;4978611;28;20080;-78
2021/06/11 04:06:26;;;;;;;14.57;5.15;;;;;;;18.33;72.40;98743.47;4995012;28;20037;-78
2021/06/11 04:08:59;;;;;;;5.85;4.13;;;;;;;18.33;72.19;98742.69;4995008;28;20469;-79
2021/06/11 04:11:33;;;;;;;7.57;4.05;;;;;;;18.36;72.10;98742.03;4989797;28;20041;-79
2021/06/11 04:14:00;;;;;;;5.93;4.03;;;;;;;18.38;72.29;98742.47;4976320;28;20022;-79
2021/06/11 04:16:46;;;;;;;11.17;4.50;;;;;;;18.40;72.51;98740.22;4976350;28;20117;-79
2021/06/11 04:19:23;;;;;;;6.47;4.60;;;;;;;18.42;72.57;98738.00;4976254;28;20257;-79
2021/06/11 04:21:50;;;;;;;8.07;5.10;;;;;;;18.43;72.81;98745.00;4989069;28;20038;-78
2021/06/11 04:24:16;;;;;;;11.40;4.43;;;;;;;18.47;72.53;98739.66;5012470;28;20088;-78
2021/06/11 04:26:44;;;;;;;6.40;3.97;;;;;;;18.47;72.37;98745.09;4994553;28;20598;-78
2021/06/11 04:29:12;;;;;;;5.10;4.32;;;;;;;18.51;72.59;98746.00;4995417;28;20026;-78
2021/06/11 04:31:38;;;;;;;9.95;3.85;;;;;;;18.48;72.30;98749.38;4990336;28;20030;-77
2021/06/11 04:34:04;;;;;;;9.10;4.50;;;;;;;18.50;72.21;98753.31;4991907;28;20038;-76
2021/06/11 04:36:29;;;;;;;10.73;5.70;;;;;;;18.49;72.49;98757.19;4994263;28;20022;-77
2021/06/11 04:38:57;;;;;;;8.45;4.32;;;;;;;18.51;72.50;98759.56;4980447;28;20089;-78
2021/06/11 04:41:25;;;;;;;4.38;4.00;;;;;;;18.51;72.40;98754.91;4976100;28;20026;-77
2021/06/11 04:43:51;;;;;;;7.47;4.60;;;;;;;18.53;72.54;98765.44;4975335;28;20030;-77
2021/06/11 04:46:16;;;;;;;7.25;3.72;;;;;;;18.50;72.47;98756.03;4991041;28;20496;-77
2021/06/11 04:48:42;;;;;;;8.57;4.28;;;;;;;18.51;72.70;98754.13;5012101;28;20087;-84
2021/06/11 04:51:07;;;;;;;4.97;3.53;;;;;;;18.51;72.28;98760.31;4994278;28;20041;-82
2021/06/11 04:53:33;;;;;;;8.40;4.15;;;;;;;18.53;72.37;98765.44;4992432;28;20030;-82
2021/06/11 04:55:59;;;;;;;8.02;5.65;;;;;;;18.56;72.20;98764.75;5001938;28;20103;-85
2021/06/11 04:58:26;;;;;;;7.78;4.13;;;;;;;18.57;72.02;98771.75;4994633;28;20171;-86
2021/06/11 05:00:52;;;;;;;4.32;3.42;;;;;;;18.58;71.95;98770.63;4984156;28;20092;-89
2021/06/11 05:03:17;;;;;;;6.05;5.38;;;;;;;18.64;72.03;98773.88;4975287;28;20070;-88
2021/06/11 05:05:43;;;;;;;6.65;4.95;;;;;;;18.67;72.22;98773.22;5004814;28;20469;-85
2021/06/11 05:08:09;;;;;;;4.53;3.33;;;;;;;18.73;71.66;98782.72;4994575;28;20036;-88
2021/06/11 05:10:37;;;;;;;10.68;6.03;;;;;;;18.80;71.38;98779.47;4993078;28;20444;-80
2021/06/11 05:13:02;;;;;;;5.03;4.45;;;;;;;18.84;71.38;98788.47;4993879;28;20045;-80
2021/06/11 05:15:28;;;;;;;5.40;4.18;;;;;;;18.85;71.74;98782.72;4994103;28;20026;-79
2021/06/11 05:17:53;;;;;;;8.52;5.13;;;;;;;18.94;71.65;98787.28;4989851;28;20026;-81
2021/06/11 05:20:18;;;;;;;5.50;3.92;;;;;;;19.01;71.77;98782.09;4975087;28;20113;-79
2021/06/11 05:22:44;;;;;;;3.95;3.63;;;;;;;19.05;71.64;98785.69;4991734;28;20049;-82
2021/06/11 05:25:10;;;;;;;5.25;3.95;;;;;;;19.11;71.84;98791.69;4976464;28;20404;-80
2021/06/11 05:27:35;;;;;;;4.13;3.63;;;;;;;19.17;71.26;98796.53;4993371;28;20442;-80
2021/06/11 05:30:01;;;;;;;8.60;4.05;;;;;;;19.22;71.35;98794.72;4993286;28;20096;-80
2021/06/11 05:32:26;;;;;;;3.75;3.45;;;;;;;19.29;71.10;98798.44;4981836;28;20038;-80
2021/06/11 05:34:51;;;;;;;4.22;3.83;;;;;;;19.40;70.96;98790.63;4974430;28;20033;-81
2021/06/11 05:37:17;;;;;;;4.00;3.58;;;;;;;19.54;70.82;98794.91;4974595;28;20089;-80
2021/06/11 05:39:42;;;;;;;5.10;3.58;;;;;;;19.70;70.63;98798.50;4974283;28;20034;-80
2021/06/11 05:42:08;;;;;;;4.38;3.83;;;;;;;19.87;69.92;98804.81;4977437;28;20508;-81
2021/06/11 05:44:33;;;;;;;4.63;3.67;;;;;;;20.05;69.42;98802.59;4994019;28;20022;-80
2021/06/11 05:46:59;;;;;;;8.93;5.22;;;;;;;20.20;68.45;98801.88;4993029;28;20477;-81
2021/06/11 05:49:24;;;;;;;4.97;3.67;;;;;;;20.31;67.97;98797.50;4994521;28;20022;-86
2021/06/11 05:51:50;;;;;;;6.63;3.50;;;;;;;20.46;67.57;98798.66;4994672;28;20033;-83
2021/06/11 05:54:15;;;;;;;5.70;3.65;;;;;;;20.64;67.41;98799.13;4983307;28;20153;-77
2021/06/11 05:56:40;;;;;;;8.90;6.40;;;;;;;20.81;66.78;98796.44;5002193;28;20030;-77
2021/06/11 05:59:06;;;;;;;5.70;4.85;;;;;;;21.01;65.80;98800.06;4992700;28;20091;-79
2021/06/11 06:01:32;;;;;;;5.28;4.13;;;;;;;21.18;65.53;98799.69;4984149;28;20041;-80
2021/06/11 06:03:57;;;;;;;5.55;4.60;;;;;;;21.36;65.05;98813.69;4993707;28;20041;-79
2021/06/11 06:06:23;;;;;;;3.85;3.40;;;;;;;21.53;64.57;98815.22;4974927;28;20034;-80
2021/06/11 06:08:48;;;;;;;5.97;5.35;;;;;;;21.63;64.55;98813.13;4974585;28;20106;-77
2021/06/11 06:11:14;;;;;;;3.50;3.20;;;;;;;21.62;63.46;98816.97;4990648;28;20545;-79
2021/06/11 06:13:40;;;;;;;6.38;3.83;;;;;;;21.62;63.25;98814.25;4992773;28;20064;-78
2021/06/11 06:16:05;;;;;;;4.80;4.38;;;;;;;21.71;63.22;98823.00;4991657;28;20472;-79
2021/06/11 06:18:31;;;;;;;6.18;5.13;;;;;;;21.77;63.47;98826.25;4991991;28;20455;-80
2021/06/11 06:20:57;;;;;;;3.50;2.97;;;;;;;21.85;62.89;98822.50;5006853;28;20026;-81
2021/06/11 06:23:22;;;;;;;10.43;8.68;;;;;;;21.99;62.92;98824.75;4992523;28;20042;-83
2021/06/11 06:25:48;;;;;;;8.73;7.30;;;;;;;22.12;62.63;98822.66;4993603;28;20060;-78
2021/06/11 06:28:13;;;;;;;6.38;4.88;;;;;;;22.23;62.08;98827.19;5004073;28;20092;-79
2021/06/11 06:30:39;;;;;;;6.15;3.30;;;;;;;22.27;61.42;98823.75;4997162;28;20037;-82
2021/06/11 06:33:04;;;;;;;5.90;3.78;;;;;;;22.30;61.41;98823.03;5003535;28;20033;-83
2021/06/11 06:35:30;;;;;;;6.13;3.95;;;;;;;22.33;61.66;98816.88;5013304;28;20022;-80
2021/06/11 06:37:55;;;;;;;4.43;3.58;;;;;;;22.44;62.08;98823.31;4990308;28;20034;-79
2021/06/11 06:40:21;;;;;;;4.40;3.10;;;;;;;22.42;60.97;98820.16;4989044;28;20405;-79
2021/06/11 06:42:46;;;;;;;5.85;3.53;;;;;;;22.44;61.40;98822.53;4990427;28;20032;-76
2021/06/11 06:45:14;;;;;;;4.25;3.20;;;;;;;22.50;61.12;98821.09;4985715;28;20027;-77
2021/06/11 06:47:42;;;;;;;4.30;2.70;;;;;;;22.50;59.99;98812.91;4999233;28;20030;-78
2021/06/11 06:50:08;;;;;;;5.47;2.80;;;;;;;22.59;60.36;98823.59;5014747;28;20030;-79
2021/06/11 06:52:34;;;;;;;4.35;3.15;;;;;;;22.55;60.81;98815.34;5003723;28;20087;-76
2021/06/11 06:54:59;;;;;;;6.38;4.78;;;;;;;22.58;60.39;98814.59;5001229;28;20022;-76
2021/06/11 06:57:25;;;;;;;7.10;3.70;;;;;;;22.65;60.00;98814.72;4997396;28;20069;-75
2021/06/11 06:59:50;;;;;;;3.85;3.17;;;;;;;22.82;60.58;98816.19;5022856;28;20022;-77
2021/06/11 07:02:16;;;;;;;17.90;11.38;;;;;;;23.08;60.29;98817.38;4980479;28;20034;-75
2021/06/11 07:04:41;;;;;;;9.40;5.35;;;;;;;23.34;59.00;98813.13;5007474;28;20166;-79
2021/06/11 07:07:11;;;;;;;7.95;4.45;;;;;;;23.65;59.47;98809.25;5000202;28;20034;-81
2021/06/11 07:09:37;;;;;;;3.38;2.88;;;;;;;23.91;56.53;98806.84;4995694;28;20026;-79
2021/06/11 07:12:02;;;;;;;3.92;2.88;;;;;;;24.08;56.81;98811.78;4996464;28;20034;-78
2021/06/11 07:14:28;;;;;;;3.25;2.70;;;;;;;24.34;56.59;98810.13;4996629;28;20026;-79
2021/06/11 07:16:53;;;;;;;3.22;3.03;;;;;;;24.57;55.41;98807.22;5013500;28;20168;-79
2021/06/11 07:19:18;;;;;;;3.10;2.83;;;;;;;24.82;53.99;98814.88;4996563;28;20485;-79
2021/06/11 07:21:44;;;;;;;2.95;2.35;;;;;;;25.06;53.02;98815.44;5014032;28;20389;-79
2021/06/11 07:24:10;;;;;;;2.28;2.15;;;;;;;25.20;50.32;98807.34;4995958;28;20054;-79
2021/06/11 07:26:36;;;;;;;2.55;2.17;;;;;;;25.22;49.89;98804.25;5014062;28;20029;-79
2021/06/11 07:29:02;;;;;;;3.13;2.50;;;;;;;25.34;50.61;98801.19;5013609;28;20111;-79
2021/06/11 07:31:28;;;;;;;5.57;3.33;;;;;;;25.34;50.50;98798.47;4996637;28;20068;-79
2021/06/11 07:33:53;;;;;;;2.63;2.42;;;;;;;25.36;51.22;98804.31;4996332;28;20450;-79
2021/06/11 07:36:19;;;;;;;4.38;2.67;;;;;;;25.48;50.60;98794.28;5012347;28;20034;-79
2021/06/11 07:38:44;;;;;;;4.97;2.78;;;;;;;25.60;50.63;98802.16;5013896;28;20026;-79
2021/06/11 07:41:09;;;;;;;5.20;2.25;;;;;;;25.76;49.57;98796.34;4996259;28;20018;-79
2021/06/11 07:43:35;;;;;;;3.63;2.60;;;;;;;25.86;49.05;98803.06;5014341;28;20034;-80
2021/06/11 07:46:00;;;;;;;4.35;3.33;;;;;;;25.72;47.79;98793.59;4996126;28;20025;-79
2021/06/11 07:48:26;;;;;;;2.80;2.47;;;;;;;25.73;47.25;98803.41;5013814;28;20029;-79
2021/06/11 07:50:51;;;;;;;2.13;2.03;;;;;;;25.80;47.48;98802.63;4996082;28;20120;-78
2021/06/11 07:53:17;;;;;;;2.70;2.35;;;;;;;25.75;47.74;98799.50;5013579;28;20037;-79
2021/06/11 07:55:42;;;;;;;4.28;2.90;;;;;;;25.77;48.18;98800.66;4995886;28;20081;-78
2021/06/11 07:58:08;;;;;;;2.95;2.53;;;;;;;25.79;47.86;98801.06;5013689;28;20500;-78
2021/06/11 08:00:34;;;;;;;5.28;3.03;;;;;;;25.81;47.02;98793.25;4996087;28;20026;-79
2021/06/11 08:03:00;;;;;;;4.55;2.85;;;;;;;25.82;48.46;98792.06;4996039;28;20030;-80
2021/06/11 08:05:27;;;;;;;2.92;2.72;;;;;;;25.84;46.94;98794.41;5012399;28;20038;-80
2021/06/11 08:07:53;;;;;;;2.53;2.40;;;;;;;25.59;46.52;98788.84;5012053;28;20033;-79
2021/06/11 08:10:20;;;;;;;3.53;3.20;;;;;;;25.46;46.94;98785.66;5013322;28;20033;-78
2021/06/11 08:12:46;;;;;;;2.85;2.55;;;;;;;25.35;47.49;98782.81;5013700;28;20032;-79
2021/06/11 08:15:12;;;;;;;2.72;2.20;;;;;;;25.28;49.74;98788.25;5013829;28;20420;-77
2021/06/11 08:17:38;;;;;;;5.38;2.58;;;;;;;25.34;47.56;98790.25;4995747;28;20548;-79
2021/06/11 08:20:05;;;;;;;4.38;2.67;;;;;;;25.25;48.85;98784.31;5011929;28;20112;-80
2021/06/11 08:22:31;;;;;;;4.72;4.13;;;;;;;25.23;48.72;98778.44;4995490;28;20085;-79
2021/06/11 08:24:56;;;;;;;2.95;2.50;;;;;;;25.19;48.92;98789.34;4995489;28;20497;-80
2021/06/11 08:27:21;;;;;;;4.40;3.97;;;;;;;25.29;50.24;98774.16;4995614;28;20034;-77
2021/06/11 08:29:47;;;;;;;3.92;3.63;;;;;;;25.42;49.97;98774.69;4995504;28;20026;-78
2021/06/11 08:32:12;;;;;;;4.13;2.60;;;;;;;25.44;47.82;98775.09;5012657;28;20040;-77
2021/06/11 08:34:39;;;;;;;4.60;2.33;;;;;;;25.41;46.76;98773.09;5013128;28;20061;-79
2021/06/11 08:37:06;;;;;;;3.30;2.72;;;;;;;25.44;47.29;98775.09;4995028;28;20033;-79
2021/06/11 08:39:33;;;;;;;2.57;2.37;;;;;;;25.45;46.98;98764.91;4995412;28;20508;-79
2021/06/11 08:41:59;;;;;;;2.95;2.50;;;;;;;25.49;49.14;98771.22;4994863;28;20053;-79
2021/06/11 08:44:26;;;;;;;6.60;3.03;;;;;;;25.46;49.00;98770.00;4995226;28;20441;-78
2021/06/11 08:46:53;;;;;;;5.25;2.28;;;;;;;25.49;46.89;98771.97;4977902;28;20496;-77
2021/06/11 08:49:18;;;;;;;4.13;2.72;;;;;;;25.56;48.26;98766.53;5010333;28;20060;-78
2021/06/11 08:51:46;;;;;;;3.67;2.42;;;;;;;25.69;47.58;98768.94;4999863;28;20030;-84
2021/06/11 08:54:11;;;;;;;2.17;2.08;;;;;;;25.77;46.47;98772.47;4976600;28;20088;-76
2021/06/11 08:56:37;;;;;;;2.85;1.98;;;;;;;25.87;45.92;98764.31;4992669;28;20493;-79
2021/06/11 08:59:02;;;;;;;2.45;2.25;;;;;;;26.00;45.47;98763.94;4975316;28;20518;-78
2021/06/11 09:01:28;;;;;;;4.53;1.95;;;;;;;26.12;45.61;98765.59;4975792;28;20030;-76
2021/06/11 09:03:53;;;;;;;4.55;3.83;;;;;;;26.21;45.08;98755.81;4975465;28;20034;-76
2021/06/11 09:06:19;;;;;;;3.85;3.45;;;;;;;26.20;45.15;98758.94;4993225;28;20066;-77
2021/06/11 09:08:50;;;;;;;3.80;2.72;;;;;;;26.22;44.54;98762.09;4993125;28;20478;-78
2021/06/11 09:11:18;;;;;;;3.35;2.85;;;;;;;26.23;43.00;98749.94;4992861;28;20038;-78
2021/06/11 09:13:45;;;;;;;6.45;2.97;;;;;;;26.25;43.62;98750.34;4993286;28;20049;-77
2021/06/11 09:16:19;;;;;;;3.25;3.03;;;;;;;26.26;43.09;98748.41;5008725;28;20034;-78
2021/06/11 09:19:00;;;;;;;5.22;2.42;;;;;;;26.30;43.66;98747.22;5012188;28;20033;-77
2021/06/11 09:21:31;;;;;;;3.17;2.88;;;;;;;26.30;44.87;98751.91;5011934;28;20030;-76
2021/06/11 09:24:16;;;;;;;4.90;2.88;;;;;;;26.39;44.97;98735.88;5006721;28;20058;-77
2021/06/11 09:27:03;;;;;;;2.63;2.42;;;;;;;26.35;43.76;98741.38;5012124;28;20034;-78
2021/06/11 09:29:29;;;;;;;4.05;2.67;;;;;;;26.37;44.05;98736.25;5011979;28;20021;-77
2021/06/11 09:32:21;;;;;;;3.65;3.13;;;;;;;26.41;43.25;98730.00;4979173;28;20073;-78
2021/06/11 09:34:52;;;;;;;4.10;3.17;;;;;;;26.44;43.64;98730.00;4998736;28;20473;-78
2021/06/11 09:37:19;;;;;;;2.90;2.63;;;;;;;26.50;41.78;98727.63;5020418;28;20033;-78
2021/06/11 09:39:54;;;;;;;5.60;3.00;;;;;;;26.53;41.48;98726.88;5003420;28;20038;-76
2021/06/11 09:42:28;;;;;;;2.67;2.47;;;;;;;26.57;40.87;98722.16;5011877;28;20026;-88
2021/06/11 09:45:01;;;;;;;6.60;2.45;;;;;;;26.59;41.98;98716.31;4993453;28;20148;-80
2021/06/11 09:47:40;;;;;;;3.30;2.90;;;;;;;26.58;41.87;98712.00;4994364;28;20121;-80
2021/06/11 09:50:08;;;;;;;12.63;9.20;;;;;;;26.62;42.29;98710.81;5010566;28;20052;-79
2021/06/11 09:52:36;;;;;;;6.80;5.88;;;;;;;26.71;42.31;98713.16;4991787;28;20026;-78
2021/06/11 09:55:21;;;;;;;4.22;2.85;;;;;;;26.75;40.85;98704.97;4974396;28;20163;-79
2021/06/11 09:57:46;;;;;;;3.13;2.75;;;;;;;26.70;40.72;98706.09;4975581;28;20060;-79
2021/06/11 10:00:12;;;;;;;3.95;3.25;;;;;;;26.63;41.69;98706.88;4993535;28;20033;-79
2021/06/11 10:02:37;;;;;;;3.35;2.55;;;;;;;26.63;42.25;98703.38;5011460;28;20022;-79
2021/06/11 10:05:03;;;;;;;5.55;3.20;;;;;;;26.63;42.76;98703.38;5011432;28;20034;-79
2021/06/11 10:07:29;;;;;;;4.75;2.95;;;;;;;26.57;41.92;98702.19;5011414;28;20030;-78
2021/06/11 10:09:55;;;;;;;2.95;2.75;;;;;;;26.54;42.25;98709.25;4993583;28;20049;-79
2021/06/11 10:12:20;;;;;;;4.68;2.78;;;;;;;26.50;41.54;98709.25;5011004;28;20098;-79
2021/06/11 10:14:46;;;;;;;3.05;2.38;;;;;;;26.52;41.91;98706.09;4993262;28;20094;-78
2021/06/11 10:17:13;;;;;;;3.25;2.92;;;;;;;26.56;41.99;98700.63;4993550;28;20441;-78
2021/06/11 10:19:38;;;;;;;2.97;2.67;;;;;;;26.61;41.99;98703.75;4993155;28;20104;-78
2021/06/11 10:22:06;;;;;;;5.85;3.30;;;;;;;26.65;42.41;98707.28;4993095;28;20465;-78
2021/06/11 10:24:34;;;;;;;4.70;3.47;;;;;;;26.72;41.96;98705.69;5011306;28;20037;-79
2021/06/11 10:27:00;;;;;;;5.38;3.13;;;;;;;26.76;42.15;98706.53;4993529;28;20518;-78
2021/06/11 10:29:26;;;;;;;2.83;2.33;;;;;;;26.73;40.96;98710.00;4993814;28;20549;-78
2021/06/11 10:31:52;;;;;;;3.05;2.75;;;;;;;26.73;40.60;98710.00;4993920;28;20025;-78
2021/06/11 10:34:18;;;;;;;2.47;2.28;;;;;;;26.68;40.60;98711.19;5011209;28;20640;-78
2021/06/11 10:36:44;;;;;;;2.50;2.30;;;;;;;26.65;40.51;98701.78;4993924;28;20018;-78
2021/06/11 10:39:10;;;;;;;3.10;2.75;;;;;;;26.64;40.36;98702.19;5011087;28;20396;-78
2021/06/11 10:41:57;;;;;;;3.70;3.28;;;;;;;26.65;40.94;98710.00;5010909;28;20025;-78
2021/06/11 10:44:40;;;;;;;3.40;3.10;;;;;;;26.65;40.69;98703.75;5013751;28;20022;-78
2021/06/11 10:47:15;;;;;;;2.97;2.78;;;;;;;26.66;41.38;98708.06;4997643;28;20041;-78
2021/06/11 10:49:55;;;;;;;4.53;2.22;;;;;;;26.65;40.68;98704.53;4997667;28;20411;-78
2021/06/11 10:53:07;;;;;;;3.15;2.47;;;;;;;26.68;40.73;98708.44;4997247;28;20488;-77
2021/06/11 10:55:49;;;;;;;4.78;2.22;;;;;;;26.67;41.18;98698.66;4970829;28;20416;-80
2021/06/11 10:58:17;;;;;;;2.08;1.98;;;;;;;26.69;40.35;98694.31;4997042;28;20026;-79
2021/06/11 11:00:43;;;;;;;2.72;2.42;;;;;;;26.70;40.31;98681.41;4997383;28;20485;-79
2021/06/11 11:03:24;;;;;;;3.45;3.15;;;;;;;26.76;41.44;98673.63;4997213;28;20029;-79
2021/06/11 11:05:49;;;;;;;6.10;2.42;;;;;;;26.85;40.91;98676.72;4997264;28;20113;-79
2021/06/11 11:08:15;;;;;;;2.15;2.05;;;;;;;26.90;40.33;98664.56;4997197;28;20533;-79
2021/06/11 11:10:51;;;;;;;2.30;2.15;;;;;;;27.04;40.69;98671.97;4997524;28;20401;-79
2021/06/11 11:13:28;;;;;;;2.75;2.55;;;;;;;27.11;40.58;98666.44;4997029;28;20485;-79
2021/06/11 11:15:56;;;;;;;2.20;1.93;;;;;;;27.19;40.45;98664.47;5014742;28;20456;-80
2021/06/11 11:18:34;;;;;;;3.03;2.22;;;;;;;27.30;39.03;98667.97;4996680;28;20030;-79
2021/06/11 11:21:20;;;;;;;3.50;1.80;;;;;;;27.36;39.17;98662.84;5014304;28;20026;-80
2021/06/11 11:23:51;;;;;;;3.63;2.70;;;;;;;27.39;40.02;98653.78;5014185;28;20125;-79
2021/06/11 11:26:16;;;;;;;4.65;2.55;;;;;;;27.42;39.28;98645.56;5014569;28;20033;-79
2021/06/11 11:28:42;;;;;;;2.80;2.58;;;;;;;27.42;39.33;98653.03;4996771;28;20420;-79
2021/06/11 11:31:07;;;;;;;6.68;5.15;;;;;;;27.48;39.75;98648.69;4996590;28;20026;-79
2021/06/11 11:33:32;;;;;;;2.90;2.70;;;;;;;27.53;39.88;98645.53;4997107;28;20125;-79
2021/06/11 11:35:59;;;;;;;2.60;2.40;;;;;;;27.59;39.46;98641.16;4996944;28;20021;-79
2021/06/11 11:38:24;;;;;;;2.97;2.63;;;;;;;27.67;39.40;98633.66;4997094;28;20069;-79